Time;durP1;ratioP1;P1;durP2;ratioP2;P2;SDS_P1;SDS_P2;PMS_P1;PMS_P2;Temp;Humidity;BMP_temperature;BMP_pressure;BME280_temperature;BME280_humidity;BME280_pressure;Samples;Min_cycle;Max_cycle;Signal;HPM_P1;HPM_P2
2021/05/19 00:00:56;;;;;;;13.25;7.50;;;;;;;-145.12;100.00;63763.75;349753;28;71828;-63
2021/05/19 00:02:07;;;;;;;16.30;8.63;;;;;;;-145.12;100.00;63763.75;349457;28;75009;-66
2021/05/19 00:03:17;;;;;;;15.65;8.20;;;;;;;-145.12;100.00;63763.75;351075;27;71755;-63
2021/05/19 00:04:27;;;;;;;13.63;8.10;;;;;;;-145.12;100.00;63763.75;351199;28;71479;-64
2021/05/19 00:05:37;;;;;;;13.80;7.82;;;;;;;-145.12;100.00;63763.75;350259;27;94543;-63
2021/05/19 00:06:47;;;;;;;12.93;8.07;;;;;;;-145.12;100.00;63763.75;351214;27;71683;-63
2021/05/19 00:07:58;;;;;;;14.35;8.25;;;;;;;-145.12;100.00;63763.75;351015;27;71926;-64
2021/05/19 00:09:09;;;;;;;15.95;8.27;;;;;;;-145.12;100.00;63763.75;351091;27;71794;-63
2021/05/19 00:10:19;;;;;;;13.60;7.20;;;;;;;-145.12;100.00;63763.75;351297;27;70380;-64
2021/05/19 00:11:30;;;;;;;13.57;7.10;;;;;;;-145.12;100.00;63763.75;351280;27;71557;-63
2021/05/19 00:12:41;;;;;;;12.25;6.57;;;;;;;-145.12;100.00;63763.75;351039;27;71801;-63
2021/05/19 00:13:52;;;;;;;11.48;6.30;;;;;;;-145.12;100.00;63763.75;351170;27;70680;-63
2021/05/19 00:15:04;;;;;;;12.57;6.45;;;;;;;-145.12;100.00;63763.75;349801;28;70463;-63
2021/05/19 00:16:14;;;;;;;13.35;6.50;;;;;;;-145.12;100.00;63763.75;349689;28;71954;-63
2021/05/19 00:17:25;;;;;;;9.93;5.70;;;;;;;-145.12;100.00;63763.75;351107;27;71353;-63
2021/05/19 00:18:42;;;;;;;12.40;5.30;;;;;;;-145.12;100.00;63763.75;351115;27;70504;-63
2021/05/19 00:19:52;;;;;;;10.73;5.57;;;;;;;-145.12;100.00;63763.75;351240;27;71648;-65
2021/05/19 00:21:03;;;;;;;8.70;5.15;;;;;;;-145.12;100.00;63763.75;351188;27;71581;-63
2021/05/19 00:22:13;;;;;;;9.77;5.32;;;;;;;-145.12;100.00;63763.75;351123;27;69762;-63
2021/05/19 00:23:23;;;;;;;11.55;6.07;;;;;;;-145.12;100.00;63763.75;351330;27;67822;-63
2021/05/19 00:24:34;;;;;;;12.30;6.20;;;;;;;-145.12;100.00;63763.75;351151;27;69563;-65
2021/05/19 00:25:44;;;;;;;12.60;6.57;;;;;;;-145.12;100.00;63763.75;351336;27;71398;-66
2021/05/19 00:26:54;;;;;;;12.18;6.90;;;;;;;-145.12;100.00;63763.75;351032;27;71524;-64
2021/05/19 00:28:05;;;;;;;10.70;7.07;;;;;;;-145.12;100.00;63763.75;349648;28;71961;-65
2021/05/19 00:29:15;;;;;;;12.18;7.40;;;;;;;-145.12;100.00;63763.75;349689;28;70802;-65
2021/05/19 00:30:25;;;;;;;13.35;7.00;;;;;;;-145.12;100.00;63763.75;350499;28;94773;-64
2021/05/19 00:31:35;;;;;;;13.60;6.90;;;;;;;-145.12;100.00;63763.75;350957;28;71535;-65
2021/05/19 00:32:45;;;;;;;9.43;5.95;;;;;;;-145.12;100.00;63763.75;350455;27;94631;-66
2021/05/19 00:33:56;;;;;;;9.00;5.53;;;;;;;-145.12;100.00;63763.75;349796;28;70661;-65
2021/05/19 00:35:07;;;;;;;10.27;4.30;;;;;;;-145.12;100.00;63763.75;351192;28;71564;-64
2021/05/19 00:36:21;;;;;;;9.00;3.35;;;;;;;-145.12;100.00;63763.75;351087;28;71312;-63
2021/05/19 00:37:31;;;;;;;8.52;3.13;;;;;;;-145.12;100.00;63763.75;351224;28;71803;-64
2021/05/19 00:38:41;;;;;;;7.90;3.05;;;;;;;-145.12;100.00;63763.75;351130;28;71525;-67
2021/05/19 00:39:52;;;;;;;6.88;2.67;;;;;;;-145.12;100.00;63763.75;351253;28;71687;-65
2021/05/19 00:41:02;;;;;;;6.70;2.33;;;;;;;-145.12;100.00;63763.75;349648;28;71713;-66
2021/05/19 00:42:13;;;;;;;5.80;2.40;;;;;;;-145.12;100.00;63763.75;349579;28;71315;-64
2021/05/19 00:43:25;;;;;;;5.70;2.17;;;;;;;-145.12;100.00;63763.75;351189;28;70904;-65
2021/05/19 00:44:35;;;;;;;5.45;1.95;;;;;;;-145.12;100.00;63763.75;351085;27;70634;-63
2021/05/19 00:45:45;;;;;;;6.05;2.17;;;;;;;-145.12;100.00;63763.75;349663;28;71447;-64
2021/05/19 00:46:55;;;;;;;5.03;2.10;;;;;;;-145.12;100.00;63763.75;349754;28;71575;-66
2021/05/19 00:48:06;;;;;;;8.55;2.35;;;;;;;-145.12;100.00;63763.75;351090;27;72121;-66
2021/05/19 00:49:16;;;;;;;6.68;2.22;;;;;;;-145.12;100.00;63763.75;351487;27;70702;-65
2021/05/19 00:50:28;;;;;;;6.50;2.33;;;;;;;-145.12;100.00;63763.75;350701;27;94742;-65
2021/05/19 00:51:38;;;;;;;6.72;2.17;;;;;;;-145.12;100.00;63763.75;351453;27;70579;-64
2021/05/19 00:52:48;;;;;;;7.70;2.40;;;;;;;-145.12;100.00;63763.75;351503;27;71696;-63
2021/05/19 00:53:58;;;;;;;5.82;2.47;;;;;;;-145.12;100.00;63763.75;351447;27;71562;-64
2021/05/19 00:55:09;;;;;;;6.75;2.50;;;;;;;-145.12;100.00;63763.75;351443;27;71677;-63
2021/05/19 00:56:19;;;;;;;6.75;2.42;;;;;;;-145.12;100.00;63763.75;349988;28;70789;-66
2021/05/19 00:57:30;;;;;;;6.22;2.20;;;;;;;-145.12;100.00;63763.75;349961;28;71776;-66
2021/05/19 00:58:41;;;;;;;6.85;2.50;;;;;;;-145.12;100.00;63763.75;351251;27;71748;-63
2021/05/19 01:00:01;;;;;;;9.48;4.43;;;;;;;-145.12;100.00;63763.75;351581;27;71685;-68
2021/05/19 01:01:13;;;;;;;9.55;5.25;;;;;;;-145.12;100.00;63763.75;351460;27;69532;-67
2021/05/19 01:02:23;;;;;;;11.30;6.15;;;;;;;-145.12;100.00;63763.75;351274;27;74768;-67
2021/05/19 01:03:36;;;;;;;11.98;6.10;;;;;;;-145.12;100.00;63763.75;351315;27;71655;-65
2021/05/19 01:04:47;;;;;;;12.43;7.15;;;;;;;-145.12;100.00;63763.75;351507;27;69565;-67
2021/05/19 01:06:05;;;;;;;10.98;6.30;;;;;;;-145.12;100.00;63763.75;351527;27;71742;-67
2021/05/19 01:09:57;;;;;;;13.98;8.27;;;;;;;-145.12;100.00;63763.75;351506;27;71458;-66
2021/05/19 01:11:09;;;;;;;11.57;8.00;;;;;;;-145.12;100.00;63763.75;351447;27;71427;-64
2021/05/19 01:12:20;;;;;;;13.75;8.27;;;;;;;-145.12;100.00;63763.75;351378;27;70451;-64
2021/05/19 01:13:32;;;;;;;14.48;8.50;;;;;;;-145.12;100.00;63763.75;351423;27;71472;-64
2021/05/19 01:14:44;;;;;;;13.75;8.20;;;;;;;-145.12;100.00;63763.75;351369;27;70459;-64
2021/05/19 01:15:54;;;;;;;15.80;8.23;;;;;;;-145.12;100.00;63763.75;351521;27;71477;-64
2021/05/19 01:17:05;;;;;;;13.50;8.68;;;;;;;-145.12;100.00;63763.75;351258;27;71489;-67
2021/05/19 01:18:16;;;;;;;15.63;8.77;;;;;;;-145.12;100.00;63763.75;351416;27;71604;-64
2021/05/19 01:19:27;;;;;;;13.32;8.50;;;;;;;-145.12;100.00;63763.75;351532;27;68631;-64
2021/05/19 01:20:39;;;;;;;13.07;8.43;;;;;;;-145.12;100.00;63763.75;351396;27;71180;-65
2021/05/19 01:21:50;;;;;;;13.68;8.23;;;;;;;-145.12;100.00;63763.75;351235;27;71543;-65
2021/05/19 01:23:07;;;;;;;12.55;8.48;;;;;;;-145.12;100.00;63763.75;351464;27;71338;-64
2021/05/19 01:24:17;;;;;;;14.98;8.68;;;;;;;-145.12;100.00;63763.75;351467;27;71285;-66
2021/05/19 01:25:27;;;;;;;16.95;8.90;;;;;;;-145.12;100.00;63763.75;351514;27;70521;-65
2021/05/19 01:26:38;;;;;;;16.38;9.25;;;;;;;-145.12;100.00;63763.75;349832;28;71605;-65
2021/05/19 01:27:55;;;;;;;14.32;9.15;;;;;;;-145.12;100.00;63763.75;349960;28;71847;-65
2021/05/19 01:29:06;;;;;;;14.73;8.68;;;;;;;-145.12;100.00;63763.75;351388;27;71563;-65
2021/05/19 01:30:16;;;;;;;14.77;9.57;;;;;;;-145.12;100.00;63763.75;351369;27;70330;-65
2021/05/19 01:31:28;;;;;;;15.18;9.82;;;;;;;-145.12;100.00;63763.75;350655;27;94394;-67
2021/05/19 01:32:38;;;;;;;17.60;9.40;;;;;;;-145.12;100.00;63763.75;350589;27;94893;-64
2021/05/19 01:33:49;;;;;;;15.75;10.00;;;;;;;-145.12;100.00;63763.75;351519;27;71945;-65
2021/05/19 01:34:59;;;;;;;16.73;9.40;;;;;;;-145.12;100.00;63763.75;351204;27;71429;-65
2021/05/19 01:36:09;;;;;;;16.85;8.55;;;;;;;-145.12;100.00;63763.75;351295;27;71751;-64
2021/05/19 01:37:20;;;;;;;14.20;8.68;;;;;;;-145.12;100.00;63763.75;351429;27;71751;-67
2021/05/19 01:38:30;;;;;;;11.10;7.63;;;;;;;-145.12;100.00;63763.75;351501;27;71833;-68
2021/05/19 01:39:42;;;;;;;13.20;8.20;;;;;;;-145.12;100.00;63763.75;351200;27;70688;-64
2021/05/19 01:40:53;;;;;;;14.68;7.88;;;;;;;-145.12;100.00;63763.75;351447;27;71950;-64
2021/05/19 01:42:03;;;;;;;10.85;6.50;;;;;;;-145.12;100.00;63763.75;351486;27;71972;-64
2021/05/19 01:43:13;;;;;;;9.68;5.70;;;;;;;-145.12;100.00;63763.75;351389;27;71750;-64
2021/05/19 01:44:30;;;;;;;10.93;5.63;;;;;;;-145.12;100.00;63763.75;351341;27;70021;-67
2021/05/19 01:45:40;;;;;;;11.40;6.30;;;;;;;-145.12;100.00;63763.75;351440;27;69779;-68
2021/05/19 01:46:50;;;;;;;10.20;6.28;;;;;;;-145.12;100.00;63763.75;351500;27;71382;-65
2021/05/19 01:48:01;;;;;;;12.55;6.40;;;;;;;-145.12;100.00;63763.75;351226;27;70676;-66
2021/05/19 01:49:14;;;;;;;11.18;6.90;;;;;;;-145.12;100.00;63763.75;351238;27;71638;-67
2021/05/19 01:50:26;;;;;;;12.27;6.50;;;;;;;-145.12;100.00;63763.75;351268;27;74921;-67
2021/05/19 01:51:36;;;;;;;12.63;6.63;;;;;;;-145.12;100.00;63763.75;351383;27;70798;-68
2021/05/19 01:52:49;;;;;;;11.85;6.50;;;;;;;-145.12;100.00;63763.75;351287;27;71973;-64
2021/05/19 01:54:01;;;;;;;14.18;7.13;;;;;;;-145.12;100.00;63763.75;351315;27;71901;-68
2021/05/19 01:55:13;;;;;;;10.65;6.30;;;;;;;-145.12;100.00;63763.75;351314;27;71472;-67
2021/05/19 01:56:24;;;;;;;9.63;6.00;;;;;;;-145.12;100.00;63763.75;351434;27;72084;-67
2021/05/19 01:57:37;;;;;;;13.18;6.07;;;;;;;-145.12;100.00;63763.75;351293;27;71910;-67
2021/05/19 01:58:48;;;;;;;11.95;5.80;;;;;;;-145.12;100.00;63763.75;351464;27;71863;-65
2021/05/19 01:59:59;;;;;;;10.05;5.78;;;;;;;-145.12;100.00;63763.75;351196;28;72041;-67
2021/05/19 02:01:10;;;;;;;10.00;5.43;;;;;;;-145.12;100.00;63763.75;351289;27;71101;-67
2021/05/19 02:02:21;;;;;;;8.52;5.45;;;;;;;-145.12;100.00;63763.75;351484;27;71789;-67
2021/05/19 02:03:32;;;;;;;13.07;5.65;;;;;;;-145.12;100.00;63763.75;351455;27;68545;-64
2021/05/19 02:04:43;;;;;;;8.56;4.42;;;;;;;-145.12;100.00;63763.75;350521;27;94993;-64
2021/05/19 02:05:53;;;;;;;8.45;4.22;;;;;;;-145.12;100.00;63763.75;351266;27;70913;-64
2021/05/19 02:07:04;;;;;;;7.50;3.44;;;;;;;-145.12;100.00;63763.75;350548;27;94765;-67
2021/05/19 02:08:14;;;;;;;9.23;3.85;;;;;;;-145.12;100.00;63763.75;351400;27;70955;-64
2021/05/19 02:09:28;;;;;;;9.05;3.53;;;;;;;-145.12;100.00;63763.75;349960;28;71267;-64
2021/05/19 02:10:38;;;;;;;4.85;2.40;;;;;;;-145.12;100.00;63763.75;349724;28;71624;-66
2021/05/19 02:11:48;;;;;;;8.65;2.60;;;;;;;-145.12;100.00;63763.75;351340;27;70448;-64
2021/05/19 02:13:04;;;;;;;5.80;2.03;;;;;;;-145.12;100.00;63763.75;351386;27;71248;-66
2021/05/19 02:14:15;;;;;;;5.93;1.80;;;;;;;-145.12;100.00;63763.75;351374;27;71689;-65
2021/05/19 02:15:26;;;;;;;6.90;2.03;;;;;;;-145.12;100.00;63763.75;351447;27;70777;-64
2021/05/19 02:16:36;;;;;;;6.22;1.60;;;;;;;-145.12;100.00;63763.75;351113;27;71794;-66
2021/05/19 02:17:47;;;;;;;3.92;1.45;;;;;;;-145.12;100.00;63763.75;351473;27;70514;-64
2021/05/19 02:18:57;;;;;;;3.78;1.17;;;;;;;-145.12;100.00;63763.75;350472;27;94763;-64
2021/05/19 02:20:14;;;;;;;2.20;1.17;;;;;;;-145.12;100.00;63763.75;351330;27;71402;-67
2021/05/19 02:21:25;;;;;;;4.13;1.00;;;;;;;-145.12;100.00;63763.75;351249;27;71792;-66
2021/05/19 02:22:47;;;;;;;5.72;1.40;;;;;;;-145.12;100.00;63763.75;351240;27;71459;-66
2021/05/19 02:24:00;;;;;;;4.22;1.40;;;;;;;-145.12;100.00;63763.75;350085;28;67018;-66
2021/05/19 02:25:11;;;;;;;5.20;1.70;;;;;;;-145.12;100.00;63763.75;349622;28;71977;-68
2021/05/19 02:26:22;;;;;;;5.20;1.60;;;;;;;-145.12;100.00;63763.75;351391;27;71203;-66
2021/05/19 02:27:33;;;;;;;4.97;1.42;;;;;;;-145.12;100.00;63763.75;351433;27;71435;-68
2021/05/19 02:28:44;;;;;;;4.28;1.70;;;;;;;-145.12;100.00;63763.75;351343;27;70705;-68
2021/05/19 02:29:55;;;;;;;6.95;1.50;;;;;;;-145.12;100.00;63763.75;351286;27;71221;-64
2021/05/19 02:31:06;;;;;;;4.10;1.50;;;;;;;-145.12;100.00;63763.75;351156;27;71880;-67
2021/05/19 02:32:16;;;;;;;6.45;2.03;;;;;;;-145.12;100.00;63763.75;351441;27;70775;-69
2021/05/19 02:33:26;;;;;;;7.57;1.92;;;;;;;-145.12;100.00;63763.75;351361;27;71727;-64
2021/05/19 02:34:36;;;;;;;8.80;2.03;;;;;;;-145.12;100.00;63763.75;351248;27;70449;-65
2021/05/19 02:35:47;;;;;;;10.23;2.38;;;;;;;-145.12;100.00;63763.75;349815;28;71709;-68
2021/05/19 02:36:57;;;;;;;8.55;1.90;;;;;;;-145.12;100.00;63763.75;351457;27;71519;-69
2021/05/19 02:38:07;;;;;;;9.40;2.65;;;;;;;-145.12;100.00;63763.75;351292;27;69119;-68
2021/05/19 02:39:17;;;;;;;7.18;2.35;;;;;;;-145.12;100.00;63763.75;351184;27;71777;-65
2021/05/19 02:40:29;;;;;;;7.66;2.20;;;;;;;-145.12;100.00;63763.75;350585;27;94596;-68
2021/05/19 02:41:40;;;;;;;8.93;2.35;;;;;;;-145.12;100.00;63763.75;351267;27;71626;-68
2021/05/19 02:42:50;;;;;;;8.50;2.80;;;;;;;-145.12;100.00;63763.75;351426;27;70597;-68
2021/05/19 02:44:00;;;;;;;10.60;2.80;;;;;;;-145.12;100.00;63763.75;351232;27;71075;-66
2021/05/19 02:45:10;;;;;;;9.07;2.80;;;;;;;-145.12;100.00;63763.75;351212;27;71705;-65
2021/05/19 02:46:20;;;;;;;8.85;2.97;;;;;;;-145.12;100.00;63763.75;351442;27;70594;-68
2021/05/19 02:47:31;;;;;;;9.75;2.90;;;;;;;-145.12;100.00;63763.75;351351;27;70656;-67
2021/05/19 02:48:41;;;;;;;7.55;2.80;;;;;;;-145.12;100.00;63763.75;349756;28;71541;-65
2021/05/19 02:49:51;;;;;;;8.10;2.70;;;;;;;-145.12;100.00;63763.75;349862;28;71523;-66
2021/05/19 02:51:02;;;;;;;7.50;2.70;;;;;;;-145.12;100.00;63763.75;351406;27;71801;-67
2021/05/19 02:52:13;;;;;;;8.70;2.60;;;;;;;-145.12;100.00;63763.75;351354;27;69282;-67
2021/05/19 02:53:23;;;;;;;6.93;2.45;;;;;;;-145.12;100.00;63763.75;351307;27;71004;-66
2021/05/19 02:54:34;;;;;;;7.88;2.40;;;;;;;-145.12;100.00;63763.75;351277;27;69597;-65
2021/05/19 02:55:44;;;;;;;5.92;2.50;;;;;;;-145.12;100.00;63763.75;350576;27;92690;-64
2021/05/19 02:56:54;;;;;;;6.93;2.70;;;;;;;-145.12;100.00;63763.75;351348;27;71486;-64
2021/05/19 02:58:04;;;;;;;7.93;2.42;;;;;;;-145.12;100.00;63763.75;351170;27;71686;-66
2021/05/19 02:59:15;;;;;;;6.35;2.50;;;;;;;-145.12;100.00;63763.75;351257;27;70374;-65
2021/05/19 03:00:25;;;;;;;7.57;2.50;;;;;;;-145.12;100.00;63763.75;351380;27;70565;-64
2021/05/19 03:01:35;;;;;;;5.78;2.20;;;;;;;-145.12;100.00;63763.75;351317;27;71401;-64
2021/05/19 03:02:47;;;;;;;8.18;2.60;;;;;;;-145.12;100.00;63763.75;351336;27;71830;-64
2021/05/19 03:03:57;;;;;;;7.55;2.50;;;;;;;-145.12;100.00;63763.75;351218;27;70126;-64
2021/05/19 03:05:07;;;;;;;6.50;2.33;;;;;;;-145.12;100.00;63763.75;351284;27;72062;-65
2021/05/19 03:06:18;;;;;;;9.74;2.70;;;;;;;-145.12;100.00;63763.75;350458;27;93773;-64
2021/05/19 03:07:28;;;;;;;6.38;2.50;;;;;;;-145.12;100.00;63763.75;351375;27;69221;-64
2021/05/19 03:08:38;;;;;;;7.35;2.67;;;;;;;-145.12;100.00;63763.75;351180;27;70594;-64
2021/05/19 03:09:48;;;;;;;7.68;2.50;;;;;;;-145.12;100.00;63763.75;351384;27;71904;-65
2021/05/19 03:10:59;;;;;;;9.05;2.78;;;;;;;-145.12;100.00;63763.75;351390;27;70962;-64
2021/05/19 03:12:09;;;;;;;7.68;2.78;;;;;;;-145.12;100.00;63763.75;350956;27;71532;-64
2021/05/19 03:13:19;;;;;;;5.82;2.38;;;;;;;-145.12;100.00;63763.75;351272;27;71411;-63
2021/05/19 03:14:30;;;;;;;7.20;2.53;;;;;;;-145.12;100.00;63763.75;351349;27;71397;-64
2021/05/19 03:15:40;;;;;;;7.45;2.78;;;;;;;-145.12;100.00;63763.75;351231;27;71402;-63
2021/05/19 03:16:50;;;;;;;9.30;2.55;;;;;;;-145.12;100.00;63763.75;351256;27;71370;-64
2021/05/19 03:18:02;;;;;;;8.10;2.80;;;;;;;-145.12;100.00;63763.75;351371;27;71666;-64
2021/05/19 03:19:12;;;;;;;7.72;2.88;;;;;;;-145.12;100.00;63763.75;350492;27;94588;-64
2021/05/19 03:20:23;;;;;;;7.30;2.90;;;;;;;-145.12;100.00;63763.75;351317;27;71605;-64
2021/05/19 03:21:33;;;;;;;7.32;2.97;;;;;;;-145.12;100.00;63763.75;351322;27;71839;-64
2021/05/19 03:22:43;;;;;;;8.07;2.83;;;;;;;-145.12;100.00;63763.75;351183;27;70978;-64
2021/05/19 03:23:53;;;;;;;7.53;2.90;;;;;;;-145.12;100.00;63763.75;351293;27;71582;-64
2021/05/19 03:25:05;;;;;;;7.82;2.90;;;;;;;-145.12;100.00;63763.75;351426;27;70265;-63
2021/05/19 03:26:15;;;;;;;7.82;2.53;;;;;;;-145.12;100.00;63763.75;351266;27;70849;-64
2021/05/19 03:27:25;;;;;;;7.05;2.70;;;;;;;-145.12;100.00;63763.75;351377;27;71373;-64
2021/05/19 03:28:36;;;;;;;5.03;2.13;;;;;;;-145.12;100.00;63763.75;351213;27;71575;-64
2021/05/19 03:29:46;;;;;;;9.50;2.60;;;;;;;-145.12;100.00;63763.75;349810;28;71412;-64
2021/05/19 03:30:56;;;;;;;6.88;2.50;;;;;;;-145.12;100.00;63763.75;349678;28;71967;-64
2021/05/19 03:32:12;;;;;;;6.50;2.70;;;;;;;-145.12;100.00;63763.75;351210;27;71612;-63
2021/05/19 03:33:22;;;;;;;5.97;2.30;;;;;;;-145.12;100.00;63763.75;351306;27;71309;-63
2021/05/19 03:34:34;;;;;;;6.32;2.45;;;;;;;-145.12;100.00;63763.75;351223;27;71669;-63
2021/05/19 03:35:44;;;;;;;6.13;2.60;;;;;;;-145.12;100.00;63763.75;351234;27;71944;-64
2021/05/19 03:36:54;;;;;;;6.75;2.53;;;;;;;-145.12;100.00;63763.75;351443;27;69272;-64
2021/05/19 03:38:05;;;;;;;7.95;2.78;;;;;;;-145.12;100.00;63763.75;351186;27;69029;-64
2021/05/19 03:39:15;;;;;;;6.70;2.70;;;;;;;-145.12;100.00;63763.75;350393;27;95005;-63
2021/05/19 03:40:25;;;;;;;6.97;2.70;;;;;;;-145.12;100.00;63763.75;351378;27;70542;-64
2021/05/19 03:41:36;;;;;;;7.03;2.60;;;;;;;-145.12;100.00;63763.75;351167;27;70648;-64
2021/05/19 03:42:46;;;;;;;7.03;2.42;;;;;;;-145.12;100.00;63763.75;351243;27;71617;-64
2021/05/19 03:43:56;;;;;;;7.70;2.95;;;;;;;-145.12;100.00;63763.75;351278;27;71851;-64
2021/05/19 03:45:08;;;;;;;5.72;2.40;;;;;;;-145.12;100.00;63763.75;352143;27;71696;-64
2021/05/19 03:46:19;;;;;;;4.85;2.45;;;;;;;-145.12;100.00;63763.75;351199;27;71667;-63
2021/05/19 03:47:29;;;;;;;5.97;2.53;;;;;;;-145.12;100.00;63763.75;351031;27;70324;-64
2021/05/19 03:48:40;;;;;;;8.13;2.78;;;;;;;-145.12;100.00;63763.75;352549;27;71784;-64
2021/05/19 03:49:50;;;;;;;6.68;2.60;;;;;;;-145.12;100.00;63763.75;352726;27;71973;-63
2021/05/19 03:51:01;;;;;;;5.88;2.63;;;;;;;-145.12;100.00;63763.75;352758;27;71080;-64
2021/05/19 03:52:11;;;;;;;7.43;2.60;;;;;;;-145.12;100.00;63763.75;352385;27;71568;-64
2021/05/19 03:53:22;;;;;;;7.40;2.40;;;;;;;-145.12;100.00;63763.75;352696;27;71600;-68
2021/05/19 03:54:34;;;;;;;6.00;2.38;;;;;;;-145.12;100.00;63763.75;351212;27;71035;-66
2021/05/19 03:55:45;;;;;;;5.93;2.35;;;;;;;-145.12;100.00;63763.75;351192;27;71834;-68
2021/05/19 03:56:55;;;;;;;4.78;2.10;;;;;;;-145.12;100.00;63763.75;351079;27;71687;-67
2021/05/19 03:58:06;;;;;;;6.35;2.28;;;;;;;-145.12;100.00;63763.75;352544;27;71244;-66
2021/05/19 03:59:16;;;;;;;7.90;2.30;;;;;;;-145.12;100.00;63763.75;352717;27;71167;-69
2021/05/19 04:00:29;;;;;;;4.80;2.20;;;;;;;-145.12;100.00;63763.75;352672;27;71819;-67
2021/05/19 04:01:39;;;;;;;7.15;2.17;;;;;;;-145.12;100.00;63763.75;352396;27;71518;-66
2021/05/19 04:02:49;;;;;;;7.32;2.20;;;;;;;-145.12;100.00;63763.75;352681;27;71423;-65
2021/05/19 04:04:00;;;;;;;4.93;2.25;;;;;;;-145.12;100.00;63763.75;352635;27;71559;-64
2021/05/19 04:05:11;;;;;;;5.03;2.08;;;;;;;-145.12;100.00;63763.75;352640;27;71716;-65
2021/05/19 04:06:24;;;;;;;5.57;1.90;;;;;;;-145.12;100.00;63763.75;352626;27;71336;-66
2021/05/19 04:07:34;;;;;;;6.70;1.90;;;;;;;-145.12;100.00;63763.75;352597;27;71723;-64
2021/05/19 04:08:48;;;;;;;4.95;1.85;;;;;;;-145.12;100.00;63763.75;351198;28;69102;-65
2021/05/19 04:09:58;;;;;;;5.46;1.84;;;;;;;-145.12;100.00;63763.75;348895;28;94780;-64
2021/05/19 04:11:09;;;;;;;6.10;2.03;;;;;;;-145.12;100.00;63763.75;351032;27;70669;-63
2021/05/19 04:12:20;;;;;;;5.20;1.83;;;;;;;-145.12;100.00;63763.75;351260;28;70874;-64
2021/05/19 04:13:31;;;;;;;4.55;2.00;;;;;;;-145.12;100.00;63763.75;351244;27;71303;-64
2021/05/19 04:14:41;;;;;;;4.00;1.77;;;;;;;-145.12;100.00;63763.75;350159;27;94629;-64
2021/05/19 04:15:51;;;;;;;7.57;2.10;;;;;;;-145.12;100.00;63763.75;349750;28;68195;-64
2021/05/19 04:17:02;;;;;;;3.95;1.83;;;;;;;-145.12;100.00;63763.75;349745;28;70574;-66
2021/05/19 04:18:12;;;;;;;4.07;1.98;;;;;;;-145.12;100.00;63763.75;351159;28;71868;-68
2021/05/19 04:19:22;;;;;;;6.18;2.22;;;;;;;-145.12;100.00;63763.75;351131;27;71152;-64
2021/05/19 04:20:35;;;;;;;6.10;1.90;;;;;;;-145.12;100.00;63763.75;349610;28;70881;-68
2021/05/19 04:21:45;;;;;;;5.60;2.35;;;;;;;-145.12;100.00;63763.75;349732;28;70803;-66
2021/05/19 04:22:55;;;;;;;4.70;2.20;;;;;;;-145.12;100.00;63763.75;351157;27;71031;-64
2021/05/19 04:24:05;;;;;;;5.68;1.90;;;;;;;-145.12;100.00;63763.75;349641;28;68395;-66
2021/05/19 04:25:16;;;;;;;5.55;2.10;;;;;;;-145.12;100.00;63763.75;350383;27;94445;-64
2021/05/19 04:26:26;;;;;;;6.93;2.30;;;;;;;-145.12;100.00;63763.75;351051;28;73680;-64
2021/05/19 04:27:38;;;;;;;5.82;2.17;;;;;;;-145.12;100.00;63763.75;349611;28;71519;-64
2021/05/19 04:28:48;;;;;;;6.90;2.28;;;;;;;-145.12;100.00;63763.75;349847;28;68711;-67
2021/05/19 04:29:58;;;;;;;5.70;2.53;;;;;;;-145.12;100.00;63763.75;352223;27;71628;-64
2021/05/19 04:31:09;;;;;;;4.43;2.35;;;;;;;-145.12;100.00;63763.75;352432;27;71831;-67
2021/05/19 04:32:19;;;;;;;6.80;2.50;;;;;;;-145.12;100.00;63763.75;351200;28;70657;-67
2021/05/19 04:33:29;;;;;;;7.15;2.50;;;;;;;-145.12;100.00;63763.75;351263;27;69805;-68
2021/05/19 04:34:40;;;;;;;5.68;2.25;;;;;;;-145.12;100.00;63763.75;351078;27;71894;-67
2021/05/19 04:35:50;;;;;;;5.20;2.30;;;;;;;-145.12;100.00;63763.75;349761;28;71574;-68
2021/05/19 04:37:00;;;;;;;6.82;2.34;;;;;;;-145.12;100.00;63763.75;348775;28;94283;-67
2021/05/19 04:38:10;;;;;;;7.45;2.60;;;;;;;-145.12;100.00;63763.75;351091;28;71708;-68
2021/05/19 04:39:20;;;;;;;5.72;2.63;;;;;;;-145.12;100.00;63763.75;351316;28;71662;-64
2021/05/19 04:40:31;;;;;;;6.00;2.50;;;;;;;-145.12;100.00;63763.75;351154;28;71631;-64
2021/05/19 04:41:41;;;;;;;6.68;2.40;;;;;;;-145.12;100.00;63763.75;351026;27;71854;-64
2021/05/19 04:42:51;;;;;;;6.30;2.70;;;;;;;-145.12;100.00;63763.75;351280;28;71057;-64
2021/05/19 04:44:01;;;;;;;5.68;2.40;;;;;;;-145.12;100.00;63763.75;351264;28;71848;-64
2021/05/19 04:45:14;;;;;;;5.35;2.30;;;;;;;-145.12;100.00;63763.75;351155;28;69584;-67
2021/05/19 04:46:24;;;;;;;5.20;2.10;;;;;;;-145.12;100.00;63763.75;351150;28;71490;-66
2021/05/19 04:47:35;;;;;;;6.88;2.30;;;;;;;-145.12;100.00;63763.75;351335;28;71693;-64
2021/05/19 04:48:46;;;;;;;5.03;1.95;;;;;;;-145.12;100.00;63763.75;351222;28;71864;-66
2021/05/19 04:49:56;;;;;;;6.35;2.38;;;;;;;-145.12;100.00;63763.75;351259;28;71882;-64
2021/05/19 04:51:07;;;;;;;3.75;1.83;;;;;;;-145.12;100.00;63763.75;350935;27;71534;-64
2021/05/19 04:52:17;;;;;;;4.22;1.60;;;;;;;-145.12;100.00;63763.75;349482;28;70697;-67
2021/05/19 04:53:28;;;;;;;4.55;1.88;;;;;;;-145.12;100.00;63763.75;349766;28;69640;-65
2021/05/19 04:54:38;;;;;;;5.76;1.70;;;;;;;-145.12;100.00;63763.75;349401;28;93781;-66
2021/05/19 04:55:48;;;;;;;5.35;1.70;;;;;;;-145.12;100.00;63763.75;351246;28;70607;-67
2021/05/19 04:56:58;;;;;;;5.00;1.70;;;;;;;-145.12;100.00;63763.75;351080;28;71545;-64
2021/05/19 04:58:08;;;;;;;3.90;1.60;;;;;;;-145.12;100.00;63763.75;349600;28;70973;-66
2021/05/19 04:59:19;;;;;;;3.78;1.50;;;;;;;-145.12;100.00;63763.75;348435;28;69517;-67
2021/05/19 05:00:31;;;;;;;6.00;1.70;;;;;;;-145.12;100.00;63763.75;349652;28;71592;-66
2021/05/19 05:01:41;;;;;;;4.95;1.70;;;;;;;-145.12;100.00;63763.75;348603;28;94273;-66
2021/05/19 05:02:51;;;;;;;5.20;1.77;;;;;;;-145.12;100.00;63763.75;349521;28;71674;-65
2021/05/19 05:04:03;;;;;;;4.90;1.70;;;;;;;-145.12;100.00;63763.75;351255;28;71710;-68
2021/05/19 05:05:13;;;;;;;5.00;1.80;;;;;;;-145.12;100.00;63763.75;351055;28;70639;-65
2021/05/19 05:06:24;;;;;;;4.25;1.58;;;;;;;-145.12;100.00;63763.75;351058;27;70519;-64
2021/05/19 05:07:34;;;;;;;5.03;1.77;;;;;;;-145.12;100.00;63763.75;351097;28;71824;-64
2021/05/19 05:08:44;;;;;;;5.45;1.77;;;;;;;-145.12;100.00;63763.75;351058;27;70794;-66
2021/05/19 05:09:55;;;;;;;3.30;1.60;;;;;;;-145.12;100.00;63763.75;351263;28;71694;-65
2021/05/19 05:11:07;;;;;;;2.97;1.60;;;;;;;-145.12;100.00;63763.75;351061;28;70788;-64
2021/05/19 05:12:17;;;;;;;4.20;1.63;;;;;;;-145.12;100.00;63763.75;349551;28;71546;-63
2021/05/19 05:13:28;;;;;;;4.68;1.50;;;;;;;-145.12;100.00;63763.75;351096;28;70756;-64
2021/05/19 05:14:38;;;;;;;4.53;1.80;;;;;;;-145.12;100.00;63763.75;352477;27;71563;-65
2021/05/19 05:15:49;;;;;;;3.80;1.55;;;;;;;-145.12;100.00;63763.75;351068;28;71931;-63
2021/05/19 05:16:59;;;;;;;2.80;1.50;;;;;;;-145.12;100.00;63763.75;351046;28;71757;-65
2021/05/19 05:18:09;;;;;;;3.30;1.48;;;;;;;-145.12;100.00;63763.75;352464;27;70757;-65
2021/05/19 05:19:19;;;;;;;4.30;1.60;;;;;;;-145.12;100.00;63763.75;352581;27;68769;-63
2021/05/19 05:20:29;;;;;;;4.50;1.60;;;;;;;-145.12;100.00;63763.75;352657;27;71503;-65
2021/05/19 05:21:39;;;;;;;5.68;1.65;;;;;;;-145.12;100.00;63763.75;352403;27;71495;-66
2021/05/19 05:22:50;;;;;;;6.50;1.90;;;;;;;-145.12;100.00;63763.75;351118;28;71337;-63
2021/05/19 05:24:01;;;;;;;5.85;1.92;;;;;;;-145.12;100.00;63763.75;351165;28;71754;-63
2021/05/19 05:25:13;;;;;;;6.43;2.15;;;;;;;-145.12;100.00;63763.75;351133;28;71327;-63
2021/05/19 05:26:23;;;;;;;5.00;1.98;;;;;;;-145.12;100.00;63763.75;351139;28;71773;-64
2021/05/19 05:27:33;;;;;;;4.95;2.00;;;;;;;-145.12;100.00;63763.75;351168;28;71130;-64